createdAt,value
2022-08-02T00:00:57.266Z,69159.66
2022-08-02T00:03:24.639Z,69160.63
2022-08-02T00:05:53.592Z,69151.69
2022-08-02T00:08:21.716Z,69149.22
2022-08-02T00:10:48.969Z,69146.97
2022-08-02T00:13:16.010Z,69142.94
2022-08-02T00:15:43.017Z,69140.66
2022-08-02T00:18:10.090Z,69143.34
2022-08-02T00:20:37.327Z,69136.69
2022-08-02T00:23:04.410Z,69129.28
2022-08-02T00:25:31.400Z,69130.59
2022-08-02T00:27:58.396Z,69135.22
2022-08-02T00:30:25.609Z,69127.78
2022-08-02T00:32:52.696Z,69113.91
2022-08-02T00:35:19.895Z,69093.38
2022-08-02T00:37:46.999Z,69080.84
2022-08-02T00:40:14.094Z,69078.78
2022-08-02T00:42:41.404Z,69065.47
2022-08-02T00:45:08.608Z,69060.34
2022-08-02T00:47:35.801Z,69062.44
2022-08-02T00:50:03.265Z,69066.44
2022-08-02T00:52:30.313Z,69072.88
2022-08-02T00:54:57.637Z,69060.75
2022-08-02T00:57:24.696Z,69049.50
2022-08-02T00:59:51.649Z,69049.31
2022-08-02T01:02:18.782Z,69051.81
2022-08-02T01:04:45.967Z,69047.22
2022-08-02T01:07:14.602Z,69044.94
2022-08-02T01:09:42.672Z,69044.94
2022-08-02T01:12:10.234Z,69049.50
2022-08-02T01:14:37.583Z,69053.31
2022-08-02T01:17:16.300Z,69046.66
2022-08-02T01:19:46.303Z,69053.31
2022-08-02T01:22:34.523Z,69064.31
2022-08-02T01:25:15.214Z,69050.25
2022-08-02T01:27:57.880Z,69047.78
2022-08-02T01:30:25.848Z,69040.38
2022-08-02T01:32:55.501Z,69039.06
2022-08-02T01:35:26.409Z,69026.13
2022-08-02T01:37:56.636Z,69019.13
2022-08-02T01:40:28.125Z,69015.31
2022-08-02T01:42:55.800Z,69008.47
2022-08-02T01:45:24.080Z,69015.13
2022-08-02T01:47:51.768Z,69017.59
2022-08-02T01:50:21.638Z,69014.38
2022-08-02T01:52:53.483Z,69010.94
2022-08-02T01:55:35.032Z,69017.25
2022-08-02T01:58:24.912Z,69001.09
2022-08-02T02:00:53.911Z,69002.78
2022-08-02T02:03:22.702Z,69005.66
2022-08-02T02:05:50.386Z,68998.81
2022-08-02T02:08:27.012Z,68997.50
2022-08-02T02:10:56.137Z,68995.97
2022-08-02T02:13:33.313Z,68992.53
2022-08-02T02:16:03.217Z,68984.75
2022-08-02T02:18:30.859Z,68987.44
2022-08-02T02:20:57.979Z,68986.28
2022-08-02T02:23:25.840Z,68975.84
2022-08-02T02:25:54.967Z,68966.38
2022-08-02T02:28:30.249Z,68963.72
2022-08-02T02:31:05.182Z,68957.41
2022-08-02T02:33:33.676Z,68973.59
2022-08-02T02:36:02.243Z,68983.25
2022-08-02T02:38:31.290Z,68970.34
2022-08-02T02:41:00.895Z,68971.09
2022-08-02T02:43:28.675Z,68960.84
2022-08-02T02:45:56.561Z,68954.41
2022-08-02T02:48:25.098Z,68950.41
2022-08-02T02:50:52.858Z,68948.72
2022-08-02T02:53:20.782Z,68942.06
2022-08-02T02:56:01.778Z,68934.31
2022-08-02T02:58:30.554Z,68935.63
2022-08-02T03:01:16.277Z,68948.72
2022-08-02T03:03:46.747Z,68939.22
2022-08-02T03:06:15.770Z,68937.50
2022-08-02T03:08:43.532Z,68931.63
2022-08-02T03:11:11.172Z,68933.34
2022-08-02T03:13:39.050Z,68929.94
2022-08-02T03:16:06.555Z,68924.22
2022-08-02T03:18:36.986Z,68922.50
2022-08-02T03:21:05.542Z,68923.25
2022-08-02T03:23:33.055Z,68933.91
2022-08-02T03:26:00.937Z,68939.22
2022-08-02T03:28:27.947Z,68951.38
2022-08-02T03:30:55.038Z,68955.94
2022-08-02T03:33:22.385Z,68956.69
2022-08-02T03:35:50.779Z,68945.47
2022-08-02T03:38:19.034Z,68942.44
2022-08-02T03:40:46.446Z,68925.56
2022-08-02T03:43:14.470Z,68879.72
2022-08-02T03:45:47.746Z,68899.00
2022-08-02T03:48:34.164Z,68894.03
2022-08-02T03:51:02.527Z,68895.03
2022-08-02T03:53:30.211Z,68898.63
2022-08-02T03:55:57.769Z,68904.88
2022-08-02T03:58:24.965Z,68912.84
2022-08-02T04:00:53.183Z,68919.66
2022-08-02T04:03:20.359Z,68926.50
2022-08-02T04:05:59.405Z,68921.38
2022-08-02T04:08:36.814Z,68921.19
2022-08-02T04:11:25.240Z,68908.84
2022-08-02T04:13:53.489Z,68916.81
2022-08-02T04:16:29.184Z,68910.56
2022-08-02T04:18:58.368Z,68911.72
2022-08-02T04:21:27.106Z,68922.91
2022-08-02T04:24:18.630Z,68925.38
2022-08-02T04:26:48.812Z,68941.72
2022-08-02T04:29:17.643Z,68939.03
2022-08-02T04:31:45.216Z,68945.88
2022-08-02T04:34:15.043Z,68943.78
2022-08-02T04:36:43.255Z,68947.97
2022-08-02T04:39:10.448Z,68945.13
2022-08-02T04:41:44.014Z,68939.78
2022-08-02T04:44:11.885Z,68914.44
2022-08-02T04:46:39.269Z,68931.25
2022-08-02T04:49:06.748Z,68938.28
2022-08-02T04:51:41.054Z,68939.59
2022-08-02T04:54:10.032Z,68939.59
2022-08-02T04:56:38.407Z,68947.97
2022-08-02T04:59:05.886Z,68943.59
2022-08-02T05:01:32.915Z,68957.66
2022-08-02T05:03:59.925Z,68965.78
2022-08-02T05:06:26.975Z,68977.75
2022-08-02T05:08:54.278Z,68991.41
2022-08-02T05:11:36.198Z,69001.47
2022-08-02T05:14:06.950Z,69004.50
2022-08-02T05:16:34.035Z,69013.44
2022-08-02T05:19:02.328Z,69020.28
2022-08-02T05:21:30.282Z,69026.53
2022-08-02T05:23:57.342Z,69022.34
2022-08-02T05:26:24.391Z,69030.53
2022-08-02T05:28:51.378Z,69027.84
2022-08-02T05:31:18.597Z,69021.59
2022-08-02T05:33:45.712Z,69026.72
2022-08-02T05:36:12.728Z,69045.16
2022-08-02T05:38:39.747Z,69036.28
2022-08-02T05:41:09.124Z,69085.41
2022-08-02T05:43:36.150Z,69119.97
2022-08-02T05:46:03.146Z,69149.22
2022-08-02T05:48:32.245Z,69176.03
2022-08-02T05:51:02.859Z,69185.16
2022-08-02T05:53:37.317Z,69168.44
2022-08-02T05:56:19.284Z,69144.09
2022-08-02T05:59:05.582Z,69164.25
2022-08-02T06:01:33.966Z,69183.03
2022-08-02T06:04:02.154Z,69186.13
2022-08-02T06:06:29.949Z,69227.34
2022-08-02T06:08:59.601Z,69253.75
2022-08-02T06:11:34.022Z,69284.59
2022-08-02T06:14:01.989Z,69298.09
2022-08-02T06:16:31.743Z,69294.28
2022-08-02T06:19:00.693Z,69310.66
2022-08-02T06:22:31.323Z,69323.38
2022-08-02T06:24:18.597Z,69333.09
2022-08-02T06:26:45.951Z,69313.91
2022-08-02T06:29:13.619Z,69338.63
2022-08-02T06:31:41.377Z,69375.56
2022-08-02T06:34:12.293Z,69395.13
2022-08-02T06:36:57.135Z,69403.13
2022-08-02T06:39:32.482Z,69442.75
2022-08-02T06:42:02.796Z,69436.25
2022-08-02T06:44:48.743Z,69450.13
2022-08-02T06:47:18.896Z,69435.09
2022-08-02T06:49:51.751Z,69404.63
2022-08-02T06:52:25.645Z,69423.09
2022-08-02T06:54:55.621Z,69439.81
2022-08-02T06:57:22.774Z,69479.66
2022-08-02T06:59:49.820Z,69505.53
2022-08-02T07:02:16.868Z,69520.97
2022-08-02T07:04:43.917Z,69517.38
2022-08-02T07:07:10.946Z,69490.88
2022-08-02T07:09:38.179Z,69526.50
2022-08-02T07:12:05.453Z,69515.09
2022-08-02T07:14:32.530Z,69548.19
2022-08-02T07:17:03.242Z,69568.25
2022-08-02T07:19:36.152Z,69551.06
2022-08-02T07:22:05.791Z,69554.91
2022-08-02T07:24:32.873Z,69540.00
2022-08-02T07:27:15.419Z,69578.53
2022-08-02T07:29:46.221Z,69588.56
2022-08-02T07:32:20.953Z,69621.94
2022-08-02T07:34:50.929Z,69588.00
2022-08-02T07:37:35.327Z,69631.84
2022-08-02T07:40:14.106Z,69654.16
2022-08-02T07:42:43.240Z,69644.59
2022-08-02T07:45:10.796Z,69700.47
2022-08-02T07:47:38.796Z,69733.66
2022-08-02T07:50:06.427Z,69709.78
2022-08-02T07:52:34.275Z,69724.50
2022-08-02T07:55:01.623Z,69703.47
2022-08-02T07:57:28.652Z,69681.75
2022-08-02T07:59:55.595Z,69697.78
2022-08-02T08:02:24.705Z,69720.66
2022-08-02T08:04:52.482Z,69706.19
2022-08-02T08:07:20.386Z,69723.94
2022-08-02T08:09:48.248Z,69735.38
2022-08-02T08:12:16.413Z,69751.41
2022-08-02T08:14:44.283Z,69756.81
2022-08-02T08:17:11.383Z,69759.25
2022-08-02T08:19:51.212Z,69759.97
2022-08-02T08:22:20.040Z,69769.56
2022-08-02T08:24:48.340Z,69779.09
2022-08-02T08:27:16.157Z,69792.03
2022-08-02T08:29:43.531Z,69822.75
2022-08-02T08:32:16.266Z,69801.91
2022-08-02T08:34:48.731Z,69811.47
2022-08-02T08:37:16.924Z,69773.69
2022-08-02T08:39:57.315Z,69758.66
2022-08-02T08:42:30.427Z,69743.53
2022-08-02T08:44:58.009Z,69758.66
2022-08-02T08:47:33.544Z,69767.41
2022-08-02T08:50:14.371Z,69735.38
2022-08-02T08:52:48.877Z,69770.94
2022-08-02T08:55:18.863Z,69777.00
2022-08-02T08:57:46.220Z,69792.59
2022-08-02T09:00:13.586Z,69822.19
2022-08-02T09:02:42.675Z,69843.53
2022-08-02T09:05:13.967Z,69857.28
2022-08-02T09:07:42.851Z,69889.19
2022-08-02T09:10:28.821Z,69893.50
2022-08-02T09:13:38.283Z,69909.50
2022-08-02T09:16:14.333Z,69911.13
2022-08-02T09:18:47.347Z,69919.72
2022-08-02T09:21:15.917Z,69936.16
2022-08-02T09:23:47.259Z,69941.75
2022-08-02T09:26:15.844Z,69966.53
2022-08-02T09:28:44.595Z,69987.16
2022-08-02T09:31:12.919Z,69979.97
2022-08-02T09:33:40.999Z,70023.41
2022-08-02T09:36:09.414Z,70037.00
2022-08-02T09:38:37.074Z,70053.63
2022-08-02T09:41:04.998Z,70052.06
2022-08-02T09:43:36.266Z,70033.22
2022-08-02T09:46:18.857Z,70073.84
2022-08-02T09:48:54.511Z,70070.28
2022-08-02T09:51:23.326Z,70072.56
2022-08-02T09:54:05.942Z,70058.47
2022-08-02T09:56:41.914Z,70114.06
2022-08-02T09:59:09.077Z,70123.56
2022-08-02T10:01:37.470Z,70128.16
2022-08-02T10:04:06.253Z,70132.88
2022-08-02T10:06:34.126Z,70110.03
2022-08-02T10:09:01.582Z,70126.03
2022-08-02T10:11:28.730Z,70112.34
2022-08-02T10:13:56.045Z,70139.22
2022-08-02T10:16:24.406Z,70121.50
2022-08-02T10:18:52.838Z,70173.06
2022-08-02T10:21:46.802Z,70170.75
2022-08-02T10:24:15.616Z,70141.00
2022-08-02T10:26:43.952Z,70154.75
2022-08-02T10:29:12.032Z,70145.53
2022-08-02T10:31:43.716Z,70151.84
2022-08-02T10:34:11.478Z,70165.59
2022-08-02T10:36:39.819Z,70178.84
2022-08-02T10:39:07.061Z,70165.09
2022-08-02T10:41:43.980Z,70161.09
2022-08-02T10:44:24.334Z,70174.19
2022-08-02T10:46:52.209Z,70187.47
2022-08-02T10:52:08.419Z,70236.59
2022-08-02T10:54:37.338Z,70202.38
2022-08-02T10:57:15.380Z,70208.69
2022-08-02T10:59:43.415Z,70215.56
2022-08-02T11:02:11.484Z,70283.06
2022-08-02T11:04:41.480Z,70290.09
2022-08-02T11:07:08.574Z,70236.78
2022-08-02T11:09:36.158Z,70239.06
2022-08-02T11:12:09.068Z,70251.66
2022-08-02T11:14:38.764Z,70220.72
2022-08-02T11:17:06.904Z,70218.38
2022-08-02T11:19:35.156Z,70147.88
2022-08-02T11:22:03.837Z,70072.22
2022-08-02T11:24:32.215Z,70077.88
2022-08-02T11:27:00.335Z,70143.81
2022-08-02T11:29:49.597Z,70200.41
2022-08-02T11:32:22.402Z,70205.81
2022-08-02T11:34:58.979Z,70221.88
2022-08-02T11:37:29.163Z,70200.06
2022-08-02T11:39:56.203Z,70174.25
2022-08-02T11:42:31.248Z,70193.69
2022-08-02T11:44:58.300Z,70196.56
2022-08-02T11:47:25.651Z,70214.41
2022-08-02T11:49:52.660Z,70271.16
2022-08-02T11:52:20.166Z,70307.75
2022-08-02T11:54:49.211Z,70274.66
2022-08-02T11:57:20.092Z,70292.44
2022-08-02T11:59:52.461Z,70309.06
2022-08-02T12:02:20.749Z,70288.44
2022-08-02T12:04:58.335Z,70315.34
2022-08-02T12:07:34.375Z,70291.88
2022-08-02T12:10:05.726Z,70290.69
2022-08-02T12:12:33.233Z,70303.94
2022-08-02T12:15:00.428Z,70349.25
2022-08-02T12:17:47.673Z,70285.56
2022-08-02T12:20:14.937Z,70321.66
2022-08-02T12:22:42.251Z,70321.13
2022-08-02T12:25:33.943Z,70395.03
2022-08-02T12:28:17.586Z,70389.28
2022-08-02T12:30:52.664Z,70368.19
2022-08-02T12:33:20.813Z,70368.19
2022-08-02T12:35:47.974Z,70352.13
2022-08-02T12:38:15.204Z,70392.16
2022-08-02T12:40:42.853Z,70351.00
2022-08-02T12:43:17.397Z,70360.75
2022-08-02T12:45:54.606Z,70370.50
2022-08-02T12:48:37.829Z,70403.63
2022-08-02T12:51:18.734Z,70392.31
2022-08-02T12:53:45.845Z,70344.63
2022-08-02T12:56:12.829Z,70324.56
2022-08-02T12:58:49.809Z,70318.25
2022-08-02T13:01:24.004Z,70351.53
2022-08-02T13:04:09.706Z,70365.88
2022-08-02T13:06:43.855Z,70351.56
2022-08-02T13:09:13.096Z,70368.75
2022-08-02T13:11:42.889Z,70394.00
2022-08-02T13:14:11.562Z,70353.28
2022-08-02T13:16:38.558Z,70390.59
2022-08-02T13:19:05.646Z,70407.25
2022-08-02T13:21:40.770Z,70421.03
2022-08-02T13:24:38.386Z,70396.94
2022-08-02T13:27:08.120Z,70429.66
2022-08-02T13:29:36.072Z,70449.59
2022-08-02T13:32:03.215Z,70461.06
2022-08-02T13:34:30.223Z,70435.97
2022-08-02T13:36:57.308Z,70439.41
2022-08-02T13:39:24.396Z,70478.44
2022-08-02T13:41:51.575Z,70476.75
2022-08-02T13:44:18.634Z,70472.16
2022-08-02T13:46:46.208Z,70487.66
2022-08-02T13:49:18.797Z,70487.09
2022-08-02T13:51:50.072Z,70519.84
2022-08-02T13:54:17.563Z,70483.06
2022-08-02T13:56:44.778Z,70479.63
2022-08-02T13:59:54.281Z,70493.41
2022-08-02T14:01:59.671Z,70479.63
2022-08-02T14:04:27.053Z,70474.47
2022-08-02T14:06:54.158Z,70492.53
2022-08-02T14:11:46.608Z,70450.91
2022-08-02T14:14:16.295Z,70449.75
2022-08-02T14:16:45.375Z,70468.09
2022-08-02T14:19:15.608Z,70433.66
2022-08-02T14:21:46.053Z,70469.28
2022-08-02T14:24:19.232Z,70481.91
2022-08-02T14:26:47.386Z,70507.19
2022-08-02T14:29:16.176Z,70498.44
2022-08-02T14:31:44.980Z,70488.81
2022-08-02T14:34:13.255Z,70460.63
2022-08-02T14:36:40.951Z,70492.84
2022-08-02T14:39:08.363Z,70496.69
2022-08-02T14:41:58.187Z,70467.00
2022-08-02T14:44:24.159Z,70471.00
2022-08-02T14:46:52.457Z,70486.34
2022-08-02T14:49:26.005Z,70490.53
2022-08-02T14:51:54.812Z,70466.41
2022-08-02T14:54:30.435Z,70456.06
2022-08-02T14:56:59.555Z,70507.19
2022-08-02T14:59:27.888Z,70499.16
2022-08-02T15:01:55.250Z,70502.00
2022-08-02T15:04:22.717Z,70513.50
2022-08-02T15:06:49.971Z,70494.56
2022-08-02T15:09:17.473Z,70529.03
2022-08-02T15:11:47.736Z,70496.84
2022-08-02T15:14:25.669Z,70485.38
2022-08-02T15:16:57.679Z,70486.91
2022-08-02T15:19:56.997Z,70431.94
2022-08-02T15:22:19.157Z,70435.41
2022-08-02T15:24:48.062Z,70428.50
2022-08-02T15:27:16.169Z,70425.47
2022-08-02T15:29:44.905Z,70363.63
2022-08-02T15:32:13.614Z,70344.06
2022-08-02T15:34:41.184Z,70294.19
2022-08-02T15:37:08.456Z,70297.00
2022-08-02T15:39:37.118Z,70257.47
2022-08-02T15:42:04.395Z,70241.94
2022-08-02T15:44:31.598Z,70271.59
2022-08-02T15:46:58.937Z,70275.25
2022-08-02T15:49:26.201Z,70298.19
2022-08-02T15:51:54.394Z,70356.56
2022-08-02T15:54:21.629Z,70369.59
2022-08-02T15:56:48.918Z,70344.63
2022-08-02T15:59:16.254Z,70334.88
2022-08-02T16:01:47.513Z,70331.84
2022-08-02T16:04:16.454Z,70317.50
2022-08-02T16:06:44.215Z,70350.22
2022-08-02T16:09:11.742Z,70354.28
2022-08-02T16:11:38.808Z,70361.72
2022-08-02T16:14:06.338Z,70327.47
2022-08-02T16:16:35.852Z,70343.34
2022-08-02T16:19:46.039Z,70331.13
2022-08-02T16:21:53.556Z,70313.06
2022-08-02T16:24:21.311Z,70279.25
2022-08-02T16:26:48.782Z,70322.25
2022-08-02T16:29:19.281Z,70327.84
2022-08-02T16:31:47.712Z,70344.63
2022-08-02T16:34:15.628Z,70310.81
2022-08-02T16:36:42.882Z,70304.50
2022-08-02T16:39:10.271Z,70333.00
2022-08-02T16:41:50.760Z,70334.72
2022-08-02T16:44:29.610Z,70320.00
2022-08-02T16:47:01.359Z,70348.63
2022-08-02T16:50:04.148Z,70346.22
2022-08-02T16:52:19.009Z,70341.03
2022-08-02T16:57:43.344Z,70289.00
2022-08-02T17:00:15.388Z,70283.25
2022-08-02T17:02:43.733Z,70295.84
2022-08-02T17:08:08.157Z,70271.59
2022-08-02T17:10:44.978Z,70233.88
2022-08-02T17:13:12.307Z,70231.00
2022-08-02T17:16:00.873Z,70233.72
2022-08-02T17:18:31.175Z,70223.53
2022-08-02T17:20:58.560Z,70214.06
2022-08-02T17:24:02.834Z,70167.38
2022-08-02T17:26:13.680Z,70154.75
2022-08-02T17:29:03.725Z,70170.75
2022-08-02T17:31:30.189Z,70157.41
2022-08-02T17:34:04.684Z,70146.09
2022-08-02T17:36:32.565Z,70150.13
2022-08-02T17:38:59.794Z,70142.16
2022-08-02T17:41:38.182Z,70155.13
2022-08-02T17:44:08.667Z,70143.66
2022-08-02T17:46:36.064Z,70136.34
2022-08-02T17:49:17.284Z,70137.34
2022-08-02T17:52:48.589Z,70141.78
2022-08-02T17:54:41.758Z,70132.88
2022-08-02T17:57:11.322Z,70131.59
2022-08-02T17:59:42.039Z,70129.88
2022-08-02T18:02:11.142Z,70123.00
2022-08-02T18:04:38.945Z,70095.13
2022-08-02T18:07:09.495Z,70112.66
2022-08-02T18:09:39.592Z,70101.38
2022-08-02T18:12:14.445Z,70068.75
2022-08-02T18:14:48.899Z,70086.16
2022-08-02T18:17:16.895Z,70070.97
2022-08-02T18:19:57.228Z,70067.38
2022-08-02T18:22:30.730Z,70058.94
2022-08-02T18:24:57.987Z,70059.34
2022-08-02T18:27:25.359Z,70059.59
2022-08-02T18:30:00.322Z,70015.47
2022-08-02T18:33:55.500Z,70001.72
2022-08-02T18:35:20.151Z,70012.38
2022-08-02T18:37:56.911Z,69980.53
2022-08-02T18:40:28.558Z,69999.03
2022-08-02T18:42:55.699Z,69963.94
2022-08-02T18:45:22.935Z,69984.44
2022-08-02T18:47:51.410Z,69973.94
2022-08-02T18:50:19.845Z,69963.66
2022-08-02T18:52:48.361Z,69951.19
2022-08-02T18:55:17.194Z,69919.81
2022-08-02T18:58:19.785Z,69935.03
2022-08-02T19:00:51.704Z,69931.59
2022-08-02T19:03:19.869Z,69903.22
2022-08-02T19:05:53.681Z,69921.84
2022-08-02T19:08:25.483Z,69922.28
2022-08-02T19:10:55.159Z,69911.38
2022-08-02T19:13:24.133Z,69901.97
2022-08-02T19:15:52.488Z,69901.19
2022-08-02T19:18:20.225Z,69886.47
2022-08-02T19:20:58.233Z,69857.41
2022-08-02T19:23:29.839Z,69853.97
2022-08-02T19:25:57.652Z,69875.44
2022-08-02T19:28:26.226Z,69873.72
2022-08-02T19:30:57.559Z,69845.38
2022-08-02T19:34:06.280Z,69862.84
2022-08-02T19:36:12.899Z,69853.13
2022-08-02T19:38:45.432Z,69854.25
2022-08-02T19:41:14.379Z,69845.13
2022-08-02T19:44:26.323Z,69837.66
2022-08-02T19:46:31.651Z,69846.81
2022-08-02T19:49:01.076Z,69837.09
2022-08-02T19:51:49.597Z,69835.78
2022-08-02T19:54:22.871Z,69820.06
2022-08-02T19:57:10.352Z,69816.28
2022-08-02T19:59:41.068Z,69808.59
2022-08-02T20:02:08.260Z,69806.88
2022-08-02T20:04:38.002Z,69804.19
2022-08-02T20:07:05.224Z,69814.19
2022-08-02T20:09:46.893Z,69795.84
2022-08-02T20:12:15.142Z,69779.84
2022-08-02T20:14:50.833Z,69767.84
2022-08-02T20:17:20.888Z,69758.09
2022-08-02T20:19:48.592Z,69750.09
2022-08-02T20:22:16.572Z,69748.38
2022-08-02T20:24:44.044Z,69744.38
2022-08-02T20:27:17.039Z,69745.53
2022-08-02T20:29:55.939Z,69738.63
2022-08-02T20:32:23.874Z,69732.91
2022-08-02T20:34:51.295Z,69736.19
2022-08-02T20:38:01.137Z,69730.06
2022-08-02T20:40:08.341Z,69714.94
2022-08-02T20:42:35.595Z,69742.66
2022-08-02T20:45:04.609Z,69746.66
2022-08-02T20:47:39.805Z,69746.09
2022-08-02T20:53:24.143Z,69762.09
2022-08-02T20:55:57.423Z,69757.13
2022-08-02T20:58:27.308Z,69755.81
2022-08-02T21:00:59.196Z,69740.94
2022-08-02T21:03:38.899Z,69726.78
2022-08-02T21:06:14.669Z,69734.22
2022-08-02T21:08:42.329Z,69741.34
2022-08-02T21:14:07.734Z,69753.69
2022-08-02T21:16:36.937Z,69758.25
2022-08-02T21:19:07.938Z,69748.94
2022-08-02T21:21:37.409Z,69739.22
2022-08-02T21:24:04.898Z,69727.75
2022-08-02T21:26:32.479Z,69715.75
2022-08-02T21:29:03.289Z,69708.31
2022-08-02T21:31:35.501Z,69702.59
2022-08-02T21:34:19.245Z,69691.31
2022-08-02T21:36:50.515Z,69701.31
2022-08-02T21:39:17.829Z,69727.19
2022-08-02T21:41:46.291Z,69747.22
2022-08-02T21:44:18.870Z,69750.09
2022-08-02T21:46:49.247Z,69757.69
2022-08-02T21:49:18.399Z,69750.25
2022-08-02T21:51:49.575Z,69757.53
2022-08-02T21:54:21.257Z,69752.94
2022-08-02T21:56:52.203Z,69751.81
2022-08-02T21:59:26.252Z,69747.22
2022-08-02T22:01:56.863Z,69739.22
2022-08-02T22:04:27.869Z,69733.47
2022-08-02T22:06:55.612Z,69724.91
2022-08-02T22:09:43.228Z,69722.06
2022-08-02T22:12:12.668Z,69739.63
2022-08-02T22:14:49.714Z,69739.63
2022-08-02T22:17:53.307Z,69728.91
2022-08-02T22:20:21.377Z,69731.78
2022-08-02T22:22:50.624Z,69718.06
2022-08-02T22:25:26.928Z,69715.59
2022-08-02T22:28:35.209Z,69695.16
2022-08-02T22:30:55.298Z,69680.13
2022-08-02T22:33:47.294Z,69659.72
2022-08-02T22:36:28.151Z,69640.25
2022-08-02T22:38:55.981Z,69628.25
2022-08-02T22:41:23.085Z,69633.97
2022-08-02T22:43:50.784Z,69630.53
2022-08-02T22:46:17.997Z,69629.56
2022-08-02T22:48:45.698Z,69639.66
2022-08-02T22:51:13.627Z,69625.94
2022-08-02T22:53:42.450Z,69621.22
2022-08-02T22:56:10.346Z,69621.38
2022-08-02T22:58:35.575Z,70314.25
2022-08-02T22:58:36.523Z,70271.22
2022-08-02T22:59:02.071Z,69745.53
2022-08-02T22:59:08.351Z,69748.53
2022-08-02T23:01:25.476Z,69605.53
2022-08-02T23:03:52.728Z,69574.88
2022-08-02T23:06:22.646Z,69596.22
2022-08-02T23:08:50.402Z,69590.94
2022-08-02T23:11:17.646Z,69586.38
2022-08-02T23:13:44.832Z,69577.53
2022-08-02T23:16:31.124Z,69583.66
2022-08-02T23:19:16.986Z,69569.97
2022-08-02T23:22:01.579Z,69564.81
2022-08-02T23:24:33.493Z,69550.50
2022-08-02T23:27:02.265Z,69539.81
2022-08-02T23:29:29.436Z,69542.09
2022-08-02T23:31:56.608Z,69563.09
2022-08-02T23:34:23.723Z,69548.78
2022-08-02T23:36:51.081Z,69545.19
2022-08-02T23:39:18.182Z,69537.19
2022-08-02T23:41:45.280Z,69520.06
2022-08-02T23:44:21.738Z,69523.66
2022-08-02T23:46:48.832Z,69541.59
2022-08-02T23:49:16.943Z,69540.38
2022-08-02T23:51:44.420Z,69537.34
2022-08-02T23:54:13.148Z,69537.50
2022-08-02T23:56:40.856Z,69529.94
2022-08-02T23:59:08.215Z,69532.22
